createdAt,value
2018-07-15T00:02:19.657Z,99.90
2018-07-15T00:04:45.621Z,99.90
2018-07-15T00:07:12.292Z,99.90
2018-07-15T00:09:38.204Z,99.90
2018-07-15T00:12:04.156Z,99.90
2018-07-15T00:14:30.095Z,99.90
2018-07-15T00:16:56.049Z,99.90
2018-07-15T00:19:22.723Z,99.90
2018-07-15T00:21:48.654Z,99.90
2018-07-15T00:24:14.580Z,99.90
2018-07-15T00:26:40.615Z,99.90
2018-07-15T00:29:06.538Z,99.90
2018-07-15T00:31:32.453Z,99.90
2018-07-15T00:33:58.398Z,99.90
2018-07-15T00:36:24.304Z,99.90
2018-07-15T00:38:50.257Z,99.90
2018-07-15T00:41:16.937Z,99.90
2018-07-15T00:43:42.909Z,99.90
2018-07-15T00:46:08.867Z,99.90
2018-07-15T00:48:35.522Z,99.90
2018-07-15T00:51:01.432Z,99.90
2018-07-15T00:53:27.386Z,99.90
2018-07-15T00:55:53.308Z,99.90
2018-07-15T00:58:19.234Z,99.90
2018-07-15T01:00:45.179Z,99.90
2018-07-15T01:03:11.867Z,99.90
2018-07-15T01:05:38.577Z,99.90
2018-07-15T01:08:05.253Z,99.90
2018-07-15T01:10:31.205Z,99.90
2018-07-15T01:12:57.132Z,99.90
2018-07-15T01:15:23.101Z,99.90
2018-07-15T01:17:49.027Z,99.90
2018-07-15T01:20:14.960Z,99.90
2018-07-15T01:22:40.902Z,99.90
2018-07-15T01:25:06.817Z,99.90
2018-07-15T01:27:32.776Z,99.90
2018-07-15T01:29:59.471Z,99.90
2018-07-15T01:32:25.426Z,99.90
2018-07-15T01:34:51.360Z,99.90
2018-07-15T01:37:17.326Z,99.90
2018-07-15T01:39:43.268Z,99.90
2018-07-15T01:42:09.234Z,99.90
2018-07-15T01:44:35.903Z,99.90
2018-07-15T01:47:01.841Z,99.90
2018-07-15T01:49:27.793Z,99.90
2018-07-15T01:51:53.736Z,99.90
2018-07-15T01:54:20.437Z,99.90
2018-07-15T01:56:46.382Z,99.90
2018-07-15T01:59:12.353Z,99.90
2018-07-15T02:01:38.285Z,99.90
2018-07-15T02:04:04.252Z,99.90
2018-07-15T02:06:30.244Z,99.90
2018-07-15T02:08:56.963Z,99.90
2018-07-15T02:11:22.910Z,99.90
2018-07-15T02:13:48.888Z,99.90
2018-07-15T02:16:15.561Z,99.90
2018-07-15T02:18:41.489Z,99.90
2018-07-15T02:21:07.448Z,99.90
2018-07-15T02:23:34.116Z,99.90
2018-07-15T02:26:00.037Z,99.90
2018-07-15T02:28:25.984Z,99.90
2018-07-15T02:30:51.908Z,99.90
2018-07-15T02:33:17.864Z,99.90
2018-07-15T02:35:43.870Z,99.90
2018-07-15T02:38:09.817Z,99.90
2018-07-15T02:40:36.502Z,99.90
2018-07-15T02:43:02.439Z,99.90
2018-07-15T02:45:28.380Z,99.90
2018-07-15T02:47:54.301Z,99.90
2018-07-15T02:50:20.250Z,99.90
2018-07-15T02:52:46.950Z,99.90
2018-07-15T02:55:12.928Z,99.90
2018-07-15T02:57:38.919Z,99.90
2018-07-15T03:00:04.892Z,99.90
2018-07-15T03:02:30.842Z,99.90
2018-07-15T03:04:56.753Z,99.90
2018-07-15T03:07:22.709Z,99.90
2018-07-15T03:09:48.635Z,99.90
2018-07-15T03:12:14.603Z,99.90
2018-07-15T03:14:40.553Z,99.90
2018-07-15T03:17:06.514Z,99.90
2018-07-15T03:19:33.199Z,99.90
2018-07-15T03:21:59.185Z,99.90
2018-07-15T03:24:25.152Z,99.90
2018-07-15T03:26:51.068Z,99.90
2018-07-15T03:29:17.032Z,99.90
2018-07-15T03:31:42.976Z,99.90
2018-07-15T03:34:09.738Z,99.90
2018-07-15T03:36:35.661Z,99.90
2018-07-15T03:39:01.635Z,99.90
2018-07-15T03:41:27.588Z,99.90
2018-07-15T03:43:54.268Z,99.90
2018-07-15T03:46:20.215Z,99.90
2018-07-15T03:48:46.325Z,99.90
2018-07-15T03:51:12.254Z,99.90
2018-07-15T03:53:38.189Z,99.90
2018-07-15T03:56:04.192Z,99.90
2018-07-15T03:58:30.125Z,99.90
2018-07-15T04:00:56.088Z,99.90
2018-07-15T04:03:22.035Z,99.90
2018-07-15T04:05:48.012Z,99.90
2018-07-15T04:08:13.954Z,99.90
2018-07-15T04:10:40.642Z,99.90
2018-07-15T04:13:06.579Z,99.90
2018-07-15T04:15:32.511Z,99.90
2018-07-15T04:17:59.205Z,99.90
2018-07-15T04:20:25.134Z,99.90
2018-07-15T04:22:51.095Z,99.90
2018-07-15T04:25:17.009Z,99.90
2018-07-15T04:27:42.952Z,99.90
2018-07-15T04:30:09.637Z,99.90
2018-07-15T04:32:35.629Z,99.90
2018-07-15T04:35:01.574Z,99.90
2018-07-15T04:37:27.511Z,99.90
2018-07-15T04:39:53.465Z,99.90
2018-07-15T04:42:19.410Z,99.90
2018-07-15T04:44:45.392Z,99.90
2018-07-15T04:47:11.308Z,99.90
2018-07-15T04:49:37.275Z,99.90
2018-07-15T04:52:03.951Z,99.90
2018-07-15T04:54:29.888Z,99.90
2018-07-15T04:56:55.830Z,99.90
2018-07-15T04:59:21.774Z,99.90
2018-07-15T05:01:48.456Z,99.90
2018-07-15T05:04:15.161Z,99.90
2018-07-15T05:06:41.872Z,99.90
2018-07-15T05:09:08.585Z,99.90
2018-07-15T05:11:34.558Z,99.90
2018-07-15T05:14:01.212Z,99.90
2018-07-15T05:16:27.144Z,99.90
2018-07-15T05:18:53.088Z,99.90
2018-07-15T05:21:19.041Z,99.90
2018-07-15T05:23:45.051Z,99.90
2018-07-15T05:26:10.986Z,99.90
2018-07-15T05:28:36.957Z,99.90
2018-07-15T05:31:02.912Z,99.90
2018-07-15T05:33:28.852Z,99.90
2018-07-15T05:35:54.803Z,99.90
2018-07-15T05:38:20.753Z,99.90
2018-07-15T05:40:46.698Z,99.90
2018-07-15T05:43:12.683Z,99.90
2018-07-15T05:45:38.624Z,99.90
2018-07-15T05:48:04.583Z,99.90
2018-07-15T05:50:30.537Z,99.90
2018-07-15T05:52:57.245Z,99.90
2018-07-15T05:55:23.198Z,99.90
2018-07-15T05:57:49.901Z,99.90
2018-07-15T06:00:15.831Z,99.90
2018-07-15T06:02:41.756Z,99.90
2018-07-15T06:05:08.460Z,99.90
2018-07-15T06:07:34.435Z,99.90
2018-07-15T06:10:01.188Z,99.90
2018-07-15T06:12:27.879Z,99.90
2018-07-15T06:14:53.818Z,99.90
2018-07-15T06:17:19.779Z,99.90
2018-07-15T06:19:45.750Z,99.90
2018-07-15T06:22:11.698Z,99.90
2018-07-15T06:24:38.402Z,99.90
2018-07-15T06:27:04.361Z,99.90
2018-07-15T06:29:31.033Z,99.90
2018-07-15T06:31:57.046Z,99.90
2018-07-15T06:34:22.952Z,99.90
2018-07-15T06:36:49.657Z,99.90
2018-07-15T06:39:15.615Z,99.90
2018-07-15T06:41:42.293Z,99.90
2018-07-15T06:44:08.227Z,99.90
2018-07-15T06:46:34.154Z,99.90
2018-07-15T06:49:00.096Z,99.90
2018-07-15T06:51:26.770Z,99.90
2018-07-15T06:53:52.775Z,99.90
2018-07-15T06:56:19.435Z,99.90
2018-07-15T06:58:45.396Z,99.90
2018-07-15T07:01:11.356Z,99.80
2018-07-15T07:03:37.300Z,99.20
2018-07-15T07:06:03.266Z,98.40
2018-07-15T07:08:29.199Z,98.50
2018-07-15T07:10:55.132Z,97.00
2018-07-15T07:13:21.059Z,96.50
2018-07-15T07:15:47.006Z,95.50
2018-07-15T07:18:12.933Z,95.90
2018-07-15T07:20:38.980Z,94.70
2018-07-15T07:23:05.602Z,93.20
2018-07-15T07:25:31.548Z,93.20
2018-07-15T07:27:57.498Z,91.90
2018-07-15T07:30:23.432Z,89.70
2018-07-15T07:32:52.057Z,87.00
2018-07-15T07:35:18.061Z,87.10
2018-07-15T07:37:43.956Z,86.10
2018-07-15T07:40:09.876Z,84.00
2018-07-15T07:42:35.841Z,83.50
2018-07-15T07:45:01.769Z,81.80
2018-07-15T07:47:27.741Z,80.20
2018-07-15T07:49:53.691Z,77.10
2018-07-15T07:52:19.679Z,74.10
2018-07-15T07:54:46.372Z,69.70
2018-07-15T07:57:12.292Z,69.60
2018-07-15T07:59:38.253Z,70.20
2018-07-15T08:02:04.257Z,73.30
2018-07-15T08:04:30.920Z,70.70
2018-07-15T08:06:56.882Z,70.70
2018-07-15T08:09:23.601Z,73.10
2018-07-15T08:11:50.327Z,69.60
2018-07-15T08:14:16.261Z,69.50
2018-07-15T08:16:42.963Z,67.50
2018-07-15T08:19:08.909Z,68.20
2018-07-15T08:21:34.883Z,66.00
2018-07-15T08:24:00.814Z,62.30
2018-07-15T08:26:26.766Z,59.80
2018-07-15T08:28:52.727Z,60.50
2018-07-15T08:31:19.410Z,62.20
2018-07-15T08:33:45.352Z,62.20
2018-07-15T08:36:11.316Z,59.90
2018-07-15T08:38:37.994Z,60.30
2018-07-15T08:41:03.923Z,60.20
2018-07-15T08:43:29.883Z,58.10
2018-07-15T08:45:56.623Z,57.10
2018-07-15T08:48:22.519Z,57.00
2018-07-15T08:50:48.505Z,58.00
2018-07-15T08:53:14.453Z,56.70
2018-07-15T08:55:40.414Z,57.90
2018-07-15T08:58:07.113Z,59.10
2018-07-15T09:00:33.072Z,59.10
2018-07-15T09:02:59.695Z,58.20
2018-07-15T09:05:25.698Z,56.70
2018-07-15T09:07:51.667Z,57.60
2018-07-15T09:10:17.619Z,56.80
2018-07-15T09:12:43.627Z,56.00
2018-07-15T09:15:09.537Z,58.80
2018-07-15T09:17:36.211Z,55.00
2018-07-15T09:20:02.152Z,55.00
2018-07-15T09:22:28.148Z,54.20
2018-07-15T09:24:54.104Z,54.60
2018-07-15T09:27:20.091Z,55.60
2018-07-15T09:29:46.022Z,56.70
2018-07-15T09:32:11.951Z,54.50
2018-07-15T09:34:37.899Z,56.40
2018-07-15T09:37:03.838Z,57.50
2018-07-15T09:39:29.797Z,52.70
2018-07-15T09:41:55.738Z,52.50
2018-07-15T09:44:21.714Z,52.30
2018-07-15T09:46:47.656Z,51.70
2018-07-15T09:49:13.641Z,52.20
2018-07-15T09:51:39.580Z,53.30
2018-07-15T09:54:06.296Z,53.70
2018-07-15T09:56:33.028Z,53.50
2018-07-15T09:58:58.974Z,53.50
2018-07-15T10:01:24.936Z,53.00
2018-07-15T10:03:50.910Z,55.20
2018-07-15T10:06:16.857Z,54.30
2018-07-15T10:08:43.554Z,54.40
2018-07-15T10:11:09.525Z,54.30
2018-07-15T10:13:36.200Z,54.90
2018-07-15T10:16:02.262Z,55.00
2018-07-15T10:18:29.191Z,59.40
2018-07-15T10:20:55.115Z,59.40
2018-07-15T10:23:21.085Z,56.90
2018-07-15T10:25:47.031Z,58.40
2018-07-15T10:28:13.008Z,58.20
2018-07-15T10:30:39.700Z,59.40
2018-07-15T10:33:06.075Z,59.50
2018-07-15T10:35:32.796Z,62.50
2018-07-15T10:37:58.735Z,62.30
2018-07-15T10:40:24.687Z,61.10
2018-07-15T10:42:50.607Z,62.60
2018-07-15T10:45:16.596Z,60.10
2018-07-15T10:47:42.514Z,59.90
2018-07-15T10:50:08.453Z,59.70
2018-07-15T10:52:34.418Z,59.40
2018-07-15T10:55:00.356Z,59.90
2018-07-15T10:57:26.340Z,58.00
2018-07-15T10:59:52.294Z,60.50
2018-07-15T11:02:18.279Z,58.90
2018-07-15T11:04:44.950Z,59.00
2018-07-15T11:07:10.933Z,58.90
2018-07-15T11:09:37.626Z,59.40
2018-07-15T11:12:03.591Z,59.40
2018-07-15T11:14:30.309Z,59.20
2018-07-15T11:16:56.235Z,59.20
2018-07-15T11:19:22.188Z,62.40
2018-07-15T11:21:48.108Z,61.40
2018-07-15T11:24:14.836Z,60.30
2018-07-15T11:26:41.531Z,60.50
2018-07-15T11:29:07.483Z,60.50
2018-07-15T11:31:33.441Z,61.20
2018-07-15T11:33:59.425Z,63.20
2018-07-15T11:36:25.420Z,61.70
2018-07-15T11:38:51.379Z,60.20
2018-07-15T11:41:17.330Z,61.70
2018-07-15T11:43:43.290Z,61.10
2018-07-15T11:46:09.269Z,59.90
2018-07-15T11:48:35.227Z,60.60
2018-07-15T11:51:01.209Z,60.10
2018-07-15T11:53:27.908Z,62.00
2018-07-15T11:55:53.856Z,62.00
2018-07-15T11:58:20.563Z,63.50
2018-07-15T12:00:46.535Z,63.50
2018-07-15T12:03:13.268Z,63.30
2018-07-15T12:05:39.980Z,62.30
2018-07-15T12:08:05.989Z,62.20
2018-07-15T12:10:31.930Z,62.80
2018-07-15T12:12:57.945Z,63.00
2018-07-15T12:15:23.897Z,61.40
2018-07-15T12:17:50.581Z,61.50
2018-07-15T12:20:16.554Z,61.40
2018-07-15T12:22:43.257Z,60.40
2018-07-15T12:25:09.258Z,60.20
2018-07-15T12:27:35.230Z,65.40
2018-07-15T12:30:01.216Z,61.70
2018-07-15T12:32:27.173Z,62.20
2018-07-15T12:34:53.168Z,62.90
2018-07-15T12:37:19.143Z,62.50
2018-07-15T12:39:45.835Z,63.60
2018-07-15T12:42:11.805Z,63.60
2018-07-15T12:44:38.502Z,62.80
2018-07-15T12:47:04.476Z,62.10
2018-07-15T12:49:30.426Z,62.50
2018-07-15T12:51:56.417Z,61.70
2018-07-15T12:54:24.084Z,63.70
2018-07-15T12:56:50.984Z,63.60
2018-07-15T12:59:16.986Z,63.60
2018-07-15T13:01:42.947Z,63.50
2018-07-15T13:04:08.904Z,62.90
2018-07-15T13:06:34.833Z,62.80
2018-07-15T13:09:00.798Z,64.40
2018-07-15T14:22:06.918Z,63.30
2018-07-15T14:24:32.860Z,63.90
2018-07-15T14:26:58.842Z,63.30
2018-07-15T14:29:24.771Z,62.70
2018-07-15T14:31:50.771Z,62.70
2018-07-15T14:34:17.460Z,62.30
2018-07-15T14:36:43.416Z,62.30
2018-07-15T14:39:10.112Z,62.20
2018-07-15T14:41:36.078Z,62.20
2018-07-15T14:44:02.784Z,63.00
2018-07-15T14:46:28.726Z,62.90
2018-07-15T14:48:54.698Z,62.20
2018-07-15T14:51:20.716Z,62.10
2018-07-15T14:53:46.667Z,62.00
2018-07-15T14:56:12.603Z,62.20
2018-07-15T14:58:38.525Z,63.30
2018-07-15T15:01:04.578Z,63.30
2018-07-15T15:03:30.533Z,60.10
2018-07-15T15:05:56.489Z,60.70
2018-07-15T15:08:22.457Z,60.90
2018-07-15T15:10:49.165Z,61.90
2018-07-15T15:13:15.128Z,61.80
2018-07-15T15:15:41.109Z,63.20
2018-07-15T15:18:07.084Z,64.00
2018-07-15T15:20:33.020Z,64.20
2018-07-15T15:22:58.983Z,63.70
2018-07-15T15:25:24.911Z,63.70
2018-07-15T15:27:50.895Z,64.70
2018-07-15T15:30:16.870Z,63.30
2018-07-15T15:32:43.606Z,63.50
2018-07-15T15:35:10.316Z,63.90
2018-07-15T15:37:36.306Z,63.10
2018-07-15T15:40:02.241Z,63.50
2018-07-15T15:42:28.198Z,63.20
2018-07-15T15:44:54.261Z,62.80
2018-07-15T15:47:20.116Z,62.70
2018-07-15T15:49:46.059Z,63.90
2018-07-15T15:52:12.009Z,65.00
2018-07-15T15:54:37.959Z,64.60
2018-07-15T15:57:03.907Z,65.50
2018-07-15T15:59:29.886Z,66.20
2018-07-15T16:01:56.569Z,66.60
2018-07-15T16:04:22.499Z,66.60
2018-07-15T16:06:48.452Z,66.00
2018-07-15T16:09:14.412Z,66.20
2018-07-15T16:11:40.350Z,66.70
2018-07-15T16:14:06.321Z,65.20
2018-07-15T16:16:32.291Z,65.10
2018-07-15T16:18:58.243Z,65.80
2018-07-15T16:21:24.202Z,65.00
2018-07-15T16:23:50.901Z,65.10
2018-07-15T16:26:16.864Z,65.00
2018-07-15T16:28:43.555Z,64.70
2018-07-15T16:31:10.282Z,65.20
2018-07-15T16:33:37.041Z,65.40
2018-07-15T16:36:02.982Z,65.40
2018-07-15T16:38:28.951Z,66.30
2018-07-15T16:40:54.909Z,65.20
2018-07-15T16:43:20.871Z,64.80
2018-07-15T16:45:47.544Z,65.90
2018-07-15T16:48:13.496Z,65.80
2018-07-15T16:50:39.421Z,67.10
2018-07-15T16:53:05.455Z,67.20
2018-07-15T16:55:31.380Z,67.50
2018-07-15T16:57:57.345Z,68.30
2018-07-15T17:00:23.280Z,67.90
2018-07-15T17:02:49.231Z,68.20
2018-07-15T17:05:15.209Z,68.60
2018-07-15T17:07:41.890Z,68.10
2018-07-15T17:10:07.837Z,68.10
2018-07-15T17:12:33.781Z,65.50
2018-07-15T17:15:00.495Z,66.00
2018-07-15T17:17:26.434Z,66.00
2018-07-15T17:19:53.120Z,67.70
2018-07-15T17:22:19.064Z,67.70
2018-07-15T17:24:45.023Z,68.30
2018-07-15T17:27:11.716Z,69.90
2018-07-15T17:29:38.390Z,69.90
2018-07-15T17:32:04.354Z,69.90
2018-07-15T17:34:30.305Z,70.50
2018-07-15T17:36:56.268Z,70.90
2018-07-15T17:39:22.959Z,71.10
2018-07-15T17:41:49.661Z,72.40
2018-07-15T17:44:15.624Z,72.40
2018-07-15T17:46:41.585Z,71.60
2018-07-15T17:49:07.558Z,72.50
2018-07-15T17:51:33.526Z,72.80
2018-07-15T17:53:59.492Z,72.50
2018-07-15T17:56:25.474Z,72.20
2018-07-15T17:58:51.490Z,73.80
2018-07-15T18:01:17.431Z,75.40
2018-07-15T18:03:44.103Z,75.40
2018-07-15T18:06:10.080Z,75.40
2018-07-15T18:08:36.772Z,76.00
2018-07-15T18:11:02.738Z,75.90
2018-07-15T18:13:28.677Z,77.30
2018-07-15T18:15:55.408Z,77.20
2018-07-15T18:18:22.134Z,77.60
2018-07-15T18:20:48.270Z,77.50
2018-07-15T18:23:14.870Z,77.30
2018-07-15T18:25:40.812Z,77.30
2018-07-15T18:28:06.754Z,77.50
2018-07-15T18:30:33.442Z,78.30
2018-07-15T18:32:59.965Z,77.50
2018-07-15T18:35:26.631Z,77.90
2018-07-15T18:37:52.721Z,78.40
2018-07-15T18:40:18.834Z,79.90
2018-07-15T18:42:44.898Z,79.60
2018-07-15T18:45:10.864Z,80.10
2018-07-15T18:47:37.572Z,81.00
2018-07-15T18:50:03.634Z,80.90
2018-07-15T18:52:29.964Z,81.30
2018-07-15T18:54:56.667Z,82.50
2018-07-15T18:57:22.645Z,82.40
2018-07-15T18:59:49.339Z,83.70
2018-07-15T19:02:15.296Z,83.60
2018-07-15T19:04:41.989Z,84.30
2018-07-15T19:07:07.925Z,84.20
2018-07-15T19:09:33.887Z,84.50
2018-07-15T19:11:59.868Z,84.80
2018-07-15T19:14:25.814Z,84.80
2018-07-15T19:16:51.796Z,85.50
2018-07-15T19:19:17.778Z,86.60
2018-07-15T19:21:44.465Z,86.80
2018-07-15T19:24:10.460Z,86.80
2018-07-15T19:26:36.444Z,86.60
2018-07-15T19:29:02.391Z,86.60
2018-07-15T19:31:28.434Z,87.10
2018-07-15T19:33:54.392Z,86.60
2018-07-15T19:36:20.317Z,86.90
2018-07-15T19:38:46.275Z,87.10
2018-07-15T19:41:12.942Z,87.20
2018-07-15T19:43:38.911Z,87.20
2018-07-15T19:46:04.840Z,87.50
2018-07-15T19:48:30.805Z,87.40
2018-07-15T19:50:56.728Z,87.50
2018-07-15T19:53:22.712Z,87.30
2018-07-15T19:55:48.639Z,87.30
2018-07-15T19:58:15.338Z,87.10
2018-07-15T20:00:41.293Z,87.10
2018-07-15T20:03:07.992Z,87.40
2018-07-15T20:05:33.988Z,87.40
2018-07-15T20:07:59.932Z,87.40
2018-07-15T20:10:26.653Z,87.80
2018-07-15T20:12:52.571Z,87.80
2018-07-15T20:15:18.559Z,87.70
2018-07-15T20:17:45.244Z,88.80
2018-07-15T20:20:11.202Z,88.40
2018-07-15T20:22:37.132Z,88.70
2018-07-15T20:25:03.086Z,88.80
2018-07-15T20:27:29.839Z,89.20
2018-07-15T20:29:55.905Z,89.10
2018-07-15T20:32:21.928Z,89.40
2018-07-15T20:34:47.873Z,89.40
2018-07-15T20:37:13.851Z,89.90
2018-07-15T20:39:39.821Z,90.10
2018-07-15T20:42:05.769Z,90.30
2018-07-15T20:44:31.724Z,90.50
2018-07-15T20:46:57.746Z,90.70
2018-07-15T20:49:23.687Z,91.00
2018-07-15T20:51:49.633Z,91.60
2018-07-15T20:54:15.592Z,91.50
2018-07-15T20:56:41.563Z,91.50
2018-07-15T20:59:07.535Z,91.70
2018-07-15T21:01:33.482Z,91.70
2018-07-15T21:04:00.227Z,92.20
2018-07-15T21:06:26.187Z,92.20
2018-07-15T21:08:52.196Z,92.30
2018-07-15T21:11:18.134Z,92.40
2018-07-15T21:13:44.077Z,92.50
2018-07-15T21:16:10.049Z,93.00
2018-07-15T21:18:36.028Z,93.10
2018-07-15T21:21:02.780Z,93.70
2018-07-15T21:23:28.757Z,93.70
2018-07-15T21:25:54.733Z,93.90
2018-07-15T21:28:20.676Z,93.80
2018-07-15T21:30:46.660Z,94.00
2018-07-15T21:33:13.340Z,94.70
2018-07-15T21:35:39.320Z,94.70
2018-07-15T21:38:06.028Z,95.50
2018-07-15T21:40:31.958Z,95.50
2018-07-15T21:42:58.652Z,95.70
2018-07-15T21:45:24.609Z,95.70
2018-07-15T21:47:50.572Z,95.90
2018-07-15T21:50:16.517Z,96.30
2018-07-15T21:52:42.511Z,96.50
2018-07-15T21:55:09.197Z,96.60
2018-07-15T21:57:36.092Z,96.60
2018-07-15T22:00:02.781Z,97.60
2018-07-15T22:02:28.789Z,97.60
2018-07-15T22:04:54.722Z,97.60
2018-07-15T22:07:20.656Z,97.50
2018-07-15T22:09:46.631Z,97.70
2018-07-15T22:12:12.572Z,97.80
2018-07-15T22:14:38.532Z,98.60
2018-07-15T22:17:04.469Z,98.50
2018-07-15T22:19:30.414Z,98.90
2018-07-15T22:21:57.087Z,99.50
2018-07-15T22:24:23.047Z,99.50
2018-07-15T22:26:48.984Z,99.90
2018-07-15T22:29:15.654Z,99.90
2018-07-15T22:31:41.614Z,99.90
2018-07-15T22:34:07.550Z,99.90
2018-07-15T22:36:33.498Z,99.90
2018-07-15T22:39:00.170Z,99.90
2018-07-15T22:41:26.131Z,99.90
2018-07-15T22:43:52.079Z,99.90
2018-07-15T22:46:18.821Z,99.90
2018-07-15T22:48:44.779Z,99.90
2018-07-15T22:51:10.731Z,99.90
2018-07-15T22:53:36.660Z,99.90
2018-07-15T22:56:02.601Z,99.90
2018-07-15T22:58:29.291Z,99.90
2018-07-15T23:00:55.240Z,99.90
2018-07-15T23:03:21.182Z,99.90
2018-07-15T23:05:47.110Z,99.90
2018-07-15T23:08:13.807Z,99.90
2018-07-15T23:10:39.747Z,99.90
2018-07-15T23:13:05.677Z,99.90
2018-07-15T23:15:32.416Z,99.90
2018-07-15T23:17:58.347Z,99.90
2018-07-15T23:20:25.052Z,99.90
2018-07-15T23:22:50.978Z,99.90
2018-07-15T23:25:16.934Z,99.90
2018-07-15T23:27:43.632Z,99.90
2018-07-15T23:30:09.572Z,99.90
2018-07-15T23:32:35.519Z,99.90
2018-07-15T23:35:01.521Z,99.90
2018-07-15T23:37:27.444Z,99.90
2018-07-15T23:39:53.390Z,99.90
2018-07-15T23:42:20.091Z,99.90
2018-07-15T23:44:46.012Z,99.90
2018-07-15T23:47:11.988Z,99.90
2018-07-15T23:49:38.657Z,99.90
2018-07-15T23:52:04.646Z,99.90
2018-07-15T23:54:31.323Z,99.90
2018-07-15T23:56:57.283Z,99.90
2018-07-15T23:59:23.984Z,99.90
